Nearby Weather Observations


KTIP - Rantoul, Illinois, USA
Distance from station: ENE 12mi, 19km
Updated: Mon, 25-Jan-2021 8:35am CST
Partly cloudy
Partly cloudy
 Wind from ENE
Wind: ENE 15 mph , 24 km/h, Gust: 22 mph , 35 km/h
Temperature: 30°F , -1°C
Wind Chill: 19°F , -7°C
Dew Point: 25°F , -4°C
Humidity: 80%
Barometer: 29.97 inHg , 1014.9 hPa
Clouds: Partly cloudy
Visibility: 10 miles , 16 km
Cloud details: Partly cloudy 8500 ft
2021/01/25 14:35 KTIP 251435Z AUTO 07013G19KT 10SM SCT085 M01/M04 A2997 RMK AO2 T10111040
KCMI - Champaign/Urbana, Illinois, USA
Distance from station: SSE 14mi, 22km
Updated: Mon, 25-Jan-2021 8:25am CST
Light snow, Mist, Overcast
Light snow, Mist, Overcast
 Wind from ENE
Wind: ENE 20 mph , 31 km/h, Gust: 29 mph , 46 km/h
Temperature: 30°F , -1°C
Wind Chill: 17°F , -8°C
Dew Point: 27°F , -3°C
Humidity: 86%
Barometer: 29.93 inHg , 1013.5 hPa
Summary: Light snow, Mist
Clouds: Overcast
Visibility: 3 miles , 5 km
Cloud details: Mostly cloudy 4100 ft
Mostly cloudy 5500 ft
Overcast 10000 ft
2021/01/25 14:25 KCMI 251425Z 06017G25KT 3SM -SN BR BKN041 BKN055 OVC100 M01/M03 A2993 RMK AO2 PK WND 06028/1403 TWR VIS 4 SNB00 P0000 T10111033
 
KBMI - Bloomington/Norm, Illinois, USA
Distance from station: WNW 34mi, 55km
Updated: Mon, 25-Jan-2021 8:39am CST
Overcast
Overcast
 Wind from ENE
Wind: ENE 16 mph , 26 km/h
Temperature: 28°F , -2°C
Wind Chill: 16°F , -9°C
Dew Point: 27°F , -3°C
Humidity: 93%
Barometer: 29.98 inHg , 1015.2 hPa
Clouds: Overcast
Visibility: 9 miles , 14 km
Cloud details: Partly cloudy 1700 ft
Overcast 5000 ft
2021/01/25 14:39 KBMI 251439Z 06014KT 9SM SCT017 OVC050 M02/M03 A2998 RMK AO2
KDEC - Decatur, Illinois, USA
Distance from station: SW 37mi, 60km
Updated: Mon, 25-Jan-2021 7:54am CST
Mist, Overcast
Mist, Overcast
 Wind from ENE
Wind: ENE 20 mph , 31 km/h
Temperature: 30°F , -1°C
Wind Chill: 17°F , -8°C
Dew Point: 28°F , -2°C
Humidity: 93%
Barometer: 29.92 inHg , 1013.2 hPa
Summary: Mist
Clouds: Overcast
Visibility: 3 miles , 5 km
Cloud details: Overcast 5500 ft
2021/01/25 13:54 KDEC 251354Z 07017KT 3SM UP BR OVC055 M01/M02 A2992 RMK A02 UPB17E23B46SNB23E46
 
KDNV - Danville, Illinois, USA
Distance from station: E 40mi, 65km
Updated: Mon, 25-Jan-2021 8:35am CST
Overcast
Overcast
 Wind from ENE
Wind: ENE 15 mph , 24 km/h
Temperature: 30°F , -1°C
Wind Chill: 19°F , -7°C
Dew Point: 27°F , -3°C
Humidity: 86%
Barometer: 29.97 inHg , 1014.9 hPa
Clouds: Overcast
Visibility: 7 miles , 11 km
Cloud details: Partly cloudy 6500 ft
Mostly cloudy 7500 ft
Overcast 9000 ft
2021/01/25 14:35 KDNV 251435Z AUTO 07013KT 7SM SCT065 BKN075 OVC090 M01/M03 A2997 RMK AO2 T10101030
KAAA - Lincoln, Illinois, USA
Distance from station: W 52mi, 83km
Updated: Mon, 25-Jan-2021 8:35am CST
Overcast
Overcast
 Wind from ENE
Wind: ENE 14 mph , 22 km/h, Gust: 23 mph , 37 km/h
Temperature: 32°F , 0°C
Wind Chill: 22°F , -6°C
Dew Point: 25°F , -4°C
Humidity: 75%
Barometer: 29.97 inHg , 1014.9 hPa
Clouds: Overcast
Visibility: 10 miles , 16 km
Cloud details: Overcast 5000 ft
2021/01/25 14:35 KAAA 251435Z AUTO 07012G20KT 10SM OVC050 00/M04 A2997 RMK AO2 T00021041
 
KMTO - Mattoon/Charlest, Illinois, USA
Distance from station: S 52mi, 84km
Updated: Mon, 25-Jan-2021 8:17am CST
Light freezing, Rain, Mist, Overcast
Light freezing, Rain, Mist, Overcast
 Wind from ENE
Wind: ENE 17 mph , 28 km/h, Gust: 24 mph , 39 km/h
Temperature: 30°F , -1°C
Wind Chill: 18°F , -8°C
Dew Point: 28°F , -2°C
Humidity: 93%
Barometer: 29.87 inHg , 1011.5 hPa
Summary: Light freezing, Rain, Mist
Clouds: Overcast
Visibility: 3 miles , 5 km
Cloud details: Overcast 700 ft
2021/01/25 14:17 KMTO 251417Z AUTO 07015G21KT 3SM -FZRA BR OVC007 M01/M02 A2987 RMK AO2 CIG 005V010 P0002 I1000 T10061017
KSPI - Springfield, Illinois, USA
Distance from station: WSW 74mi, 120km
Updated: Mon, 25-Jan-2021 8:38am CST
Light snow, Overcast
Light snow, Overcast
 Wind from ENE
Wind: ENE 13 mph , 20 km/h
Temperature: 30°F , -1°C
Wind Chill: 20°F , -7°C
Dew Point: 27°F , -3°C
Humidity: 86%
Barometer: 29.95 inHg , 1014.2 hPa
Summary: Light Snow
Clouds: Overcast
Visibility: 1 1/2 miles , 2.4 km
Cloud details: Overcast 4100 ft
2021/01/25 14:38 KSPI 251438Z 07011KT 1 1/2SM -SN OVC041 M01/M03 A2995 RMK AO2 UPB12E14SNE12B14 P0003 T10061033
 
KLAF - Lafayette, Indiana, USA
Distance from station: E 76mi, 123km
Updated: Mon, 25-Jan-2021 7:54am CST
Clear
Clear
 Wind from ENE
Wind: ENE 8 mph , 13 km/h
Temperature: 30°F , -1°C
Wind Chill: 22°F , -6°C
Dew Point: 27°F , -3°C
Humidity: 86%
Barometer: 30.04 inHg , 1017.3 hPa
Clouds: Clear
Visibility: 7 miles , 11 km
2021/01/25 13:54 KLAF 251354Z 07007KT 7SM CLR M01/M03 A3004 RMK AO2 SLP177 T10061033 $
KPIA - Peoria, Illinois, USA
Distance from station: WNW 76mi, 123km
Updated: Mon, 25-Jan-2021 7:54am CST
Haze, Overcast
Haze, Overcast
 Wind from ENE
Wind: ENE 15 mph , 24 km/h
Temperature: 30°F , -1°C
Wind Chill: 19°F , -7°C
Dew Point: 25°F , -4°C
Humidity: 80%
Barometer: 29.97 inHg , 1014.9 hPa
Summary: Haze
Clouds: Overcast
Visibility: 6 miles , 10 km
Cloud details: Mostly cloudy 1900 ft
Mostly cloudy 3400 ft
Overcast 5000 ft
2021/01/25 13:54 KPIA 251354Z 07013KT 6SM HZ BKN019 BKN034 OVC050 M01/M04 A2997 RMK AO2 SLP157 T10061039
 
KHUF - Terre Haute, Indiana, USA
Distance from station: SE 77mi, 124km
Updated: Mon, 25-Jan-2021 8:42am CST
Mist, Overcast
Mist, Overcast
 Wind from E
Wind: E 14 mph , 22 km/h
Temperature: 32°F , 0°C
Wind Chill: 22°F , -6°C
Dew Point: 30°F , -1°C
Humidity: 93%
Barometer: 29.89 inHg , 1012.2 hPa
Summary: Mist
Clouds: Overcast
Visibility: 4 miles , 6 km
Cloud details: Overcast 900 ft
2021/01/25 14:42 KHUF 251442Z 08012KT 4SM UP BR OVC009 00/M01 A2989 RMK AO2 UPB14FZRAE14 PRESFR P0004 I1002 T00001011 $
K1H2 - Effingham, Illinois, USA
Distance from station: S 80mi, 129km
Updated: Mon, 25-Jan-2021 8:35am CST
Light rain, Overcast
Light rain, Overcast
 Wind from NE
Wind: NE 7 mph , 11 km/h
Temperature: 32°F , 0°C
Wind Chill: 25°F , -4°C
Dew Point: 30°F , -1°C
Humidity: 93%
Barometer: 29.91 inHg , 1012.9 hPa
Summary: Light rain
Clouds: Overcast
Visibility: 5 miles , 8 km
Cloud details: Overcast 600 ft
2021/01/25 14:35 K1H2 251435Z AUTO 04006KT 5SM -RA OVC006 00/M01 A2991 RMK AO2 T00001007
 
KIND - Indianapolis, Indiana, USA
Distance from station: ESE 117mi, 133km
Updated: Mon, 25-Jan-2021 8:32am CST
Light freezing, Rain, Mist, Overcast
Light freezing, Rain, Mist, Overcast
 Wind from E
Wind: E 13 mph , 20 km/h
Temperature: 30°F , -1°C
Wind Chill: 20°F , -7°C
Dew Point: 27°F , -3°C
Humidity: 86%
Barometer: 30.00 inHg , 1015.9 hPa
Summary: Light freezing, Rain, Mist
Clouds: Overcast
Visibility: 5 miles , 8 km
Cloud details: Overcast 900 ft
2021/01/25 14:32 KIND 251432Z 08011KT 5SM -FZRA BR OVC009 M01/M03 A3000 RMK AO2 FZRAB24 P0000 I1000 T10061028
KORD - Chicago O'hare, Illinois, USA
Distance from station: N 126mi, 203km
Updated: Mon, 25-Jan-2021 7:51am CST
Overcast
Overcast
 Wind from N
Wind: N 10 mph , 17 km/h
Temperature: 28°F , -2°C
Wind Chill: 19°F , -7°C
Dew Point: 21°F , -6°C
Humidity: 74%
Barometer: 30.08 inHg , 1018.6 hPa
Clouds: Overcast
Visibility: 10 miles , 16 km
Cloud details: Overcast 2200 ft
2021/01/25 13:51 KORD 251351Z 01009KT 10SM OVC022 M02/M06 A3008 RMK AO2 SLP192 T10171056
 
KSTL - St. Louis, Missouri, USA
Distance from station: SW 150mi, 185km
Updated: Mon, 25-Jan-2021 8:11am CST
Rain, Mist, Overcast
Rain, Mist, Overcast
 Wind from NE
Wind: NE 8 mph , 13 km/h
Temperature: 36°F , 2°C
Wind Chill: 30°F , -1°C
Dew Point: 30°F , -1°C
Humidity: 81%
Barometer: 29.90 inHg , 1012.5 hPa
Summary: Rain, Mist
Clouds: Overcast
Visibility: 2 1/2 miles , 4 km
Cloud details: Overcast 700 ft
2021/01/25 14:11 KSTL 251411Z 05007KT 2 1/2SM RA BR OVC007 02/M01 A2990 RMK AO2 P0012 T00171006 $